Somerdale, Ohio
Current Conditions -  °F | °C
As of 7:53 AM on Saturday 20 Dec 2014 (Local Time) from KPHD Reporting Station
Overcast Overcast  
Wind Chill: 30°   Ceiling: 2500
Heat Index: 30°   Visibility: 10mi
Dew Point: 21°   Wind: 3mph
Humidity: 69%   Direction: 50°NE
Pressure: 30.29"   Gusts: NA
Location:  40.57°N, 81.36°W
Report Text: KPHD 201253Z AUTO 05003KT 10SM OVC025 M01/M06 A3029 RMK AO2 SLP266 T10111061
Loading
Personal Weather Stations






























Interactive Weather Map New forecast layout! Learn more

10-Day Weather Forecast

Advertisements
Track Severe Weather on mobile